sensor_id;sensor_type;location;lat;lon;timestamp;temperature;humidity
9810;DHT22;4944;52.514;13.192;2023-06-04T00:02:04;16.00;76.50
9810;DHT22;4944;52.514;13.192;2023-06-04T00:04:31;16.00;76.80
9810;DHT22;4944;52.514;13.192;2023-06-04T00:06:58;16.00;77.20
9810;DHT22;4944;52.514;13.192;2023-06-04T00:09:26;16.00;77.30
9810;DHT22;4944;52.514;13.192;2023-06-04T00:11:54;15.90;77.40
9810;DHT22;4944;52.514;13.192;2023-06-04T00:14:21;15.90;77.30
9810;DHT22;4944;52.514;13.192;2023-06-04T00:16:48;15.80;77.20
9810;DHT22;4944;52.514;13.192;2023-06-04T00:19:15;15.80;78.00
9810;DHT22;4944;52.514;13.192;2023-06-04T00:21:41;15.70;77.50
9810;DHT22;4944;52.514;13.192;2023-06-04T00:24:08;15.70;77.80
9810;DHT22;4944;52.514;13.192;2023-06-04T00:26:39;15.60;78.00
9810;DHT22;4944;52.514;13.192;2023-06-04T00:29:06;15.60;78.70
9810;DHT22;4944;52.514;13.192;2023-06-04T00:31:33;15.50;79.40
9810;DHT22;4944;52.514;13.192;2023-06-04T00:33:59;15.50;80.10
9810;DHT22;4944;52.514;13.192;2023-06-04T00:36:26;15.40;80.50
9810;DHT22;4944;52.514;13.192;2023-06-04T00:38:53;15.40;80.50
9810;DHT22;4944;52.514;13.192;2023-06-04T00:41:20;15.40;80.10
9810;DHT22;4944;52.514;13.192;2023-06-04T00:43:48;15.30;80.30
9810;DHT22;4944;52.514;13.192;2023-06-04T00:46:21;15.30;80.40
9810;DHT22;4944;52.514;13.192;2023-06-04T00:48:48;15.30;80.60
9810;DHT22;4944;52.514;13.192;2023-06-04T00:51:16;15.30;80.80
9810;DHT22;4944;52.514;13.192;2023-06-04T00:53:43;15.30;80.60
9810;DHT22;4944;52.514;13.192;2023-06-04T00:56:10;15.30;80.40
9810;DHT22;4944;52.514;13.192;2023-06-04T00:58:38;15.20;80.40
9810;DHT22;4944;52.514;13.192;2023-06-04T01:01:10;15.20;80.60
9810;DHT22;4944;52.514;13.192;2023-06-04T01:03:42;15.10;81.10
9810;DHT22;4944;52.514;13.192;2023-06-04T01:06:15;15.10;81.50
9810;DHT22;4944;52.514;13.192;2023-06-04T01:08:48;15.00;82.00
9810;DHT22;4944;52.514;13.192;2023-06-04T01:11:16;15.00;82.70
9810;DHT22;4944;52.514;13.192;2023-06-04T01:13:43;14.90;83.30
9810;DHT22;4944;52.514;13.192;2023-06-04T01:16:13;14.90;83.60
9810;DHT22;4944;52.514;13.192;2023-06-04T01:18:41;14.90;83.90
9810;DHT22;4944;52.514;13.192;2023-06-04T01:21:10;14.80;84.20
9810;DHT22;4944;52.514;13.192;2023-06-04T01:23:47;14.80;84.60
9810;DHT22;4944;52.514;13.192;2023-06-04T01:26:25;14.80;84.40
9810;DHT22;4944;52.514;13.192;2023-06-04T01:28:52;14.70;85.50
9810;DHT22;4944;52.514;13.192;2023-06-04T01:31:21;14.70;85.20
9810;DHT22;4944;52.514;13.192;2023-06-04T01:33:51;14.60;85.70
9810;DHT22;4944;52.514;13.192;2023-06-04T01:36:19;14.60;86.10
9810;DHT22;4944;52.514;13.192;2023-06-04T01:38:45;14.50;86.30
9810;DHT22;4944;52.514;13.192;2023-06-04T01:41:12;14.50;86.60
9810;DHT22;4944;52.514;13.192;2023-06-04T01:43:39;14.40;86.80
9810;DHT22;4944;52.514;13.192;2023-06-04T01:46:06;14.40;87.00
9810;DHT22;4944;52.514;13.192;2023-06-04T01:48:35;14.30;87.10
9810;DHT22;4944;52.514;13.192;2023-06-04T01:51:02;14.30;87.90
9810;DHT22;4944;52.514;13.192;2023-06-04T01:53:29;14.20;88.30
9810;DHT22;4944;52.514;13.192;2023-06-04T01:55:56;14.20;88.80
9810;DHT22;4944;52.514;13.192;2023-06-04T01:58:24;14.10;89.20
9810;DHT22;4944;52.514;13.192;2023-06-04T02:00:52;14.10;89.40
9810;DHT22;4944;52.514;13.192;2023-06-04T02:03:20;14.00;89.30
9810;DHT22;4944;52.514;13.192;2023-06-04T02:05:49;14.00;89.60
9810;DHT22;4944;52.514;13.192;2023-06-04T02:08:16;14.00;89.60
9810;DHT22;4944;52.514;13.192;2023-06-04T02:10:45;13.90;89.60
9810;DHT22;4944;52.514;13.192;2023-06-04T02:13:13;13.90;89.70
9810;DHT22;4944;52.514;13.192;2023-06-04T02:15:41;13.90;90.00
9810;DHT22;4944;52.514;13.192;2023-06-04T02:18:15;13.80;90.00
9810;DHT22;4944;52.514;13.192;2023-06-04T02:20:43;13.80;90.20
9810;DHT22;4944;52.514;13.192;2023-06-04T02:23:13;13.80;90.30
9810;DHT22;4944;52.514;13.192;2023-06-04T02:25:40;13.80;90.30
9810;DHT22;4944;52.514;13.192;2023-06-04T02:28:10;13.70;90.50
9810;DHT22;4944;52.514;13.192;2023-06-04T02:30:37;13.70;90.70
9810;DHT22;4944;52.514;13.192;2023-06-04T02:33:04;13.70;90.80
9810;DHT22;4944;52.514;13.192;2023-06-04T02:35:31;13.70;90.90
9810;DHT22;4944;52.514;13.192;2023-06-04T02:37:58;13.70;91.10
9810;DHT22;4944;52.514;13.192;2023-06-04T02:40:27;13.60;91.30
9810;DHT22;4944;52.514;13.192;2023-06-04T02:42:55;13.60;91.60
9810;DHT22;4944;52.514;13.192;2023-06-04T02:45:22;13.60;91.70
9810;DHT22;4944;52.514;13.192;2023-06-04T02:47:49;13.60;91.70
9810;DHT22;4944;52.514;13.192;2023-06-04T02:50:16;13.50;91.80
9810;DHT22;4944;52.514;13.192;2023-06-04T02:52:44;13.50;91.80
9810;DHT22;4944;52.514;13.192;2023-06-04T02:55:11;13.40;91.90
9810;DHT22;4944;52.514;13.192;2023-06-04T02:57:41;13.40;91.90
9810;DHT22;4944;52.514;13.192;2023-06-04T03:00:09;13.40;92.10
9810;DHT22;4944;52.514;13.192;2023-06-04T03:02:39;13.40;92.30
9810;DHT22;4944;52.514;13.192;2023-06-04T03:05:09;13.30;92.40
9810;DHT22;4944;52.514;13.192;2023-06-04T03:07:38;13.30;92.60
9810;DHT22;4944;52.514;13.192;2023-06-04T03:10:07;13.30;92.70
9810;DHT22;4944;52.514;13.192;2023-06-04T03:12:34;13.20;92.80
9810;DHT22;4944;52.514;13.192;2023-06-04T03:15:03;13.20;92.90
9810;DHT22;4944;52.514;13.192;2023-06-04T03:17:30;13.20;92.90
9810;DHT22;4944;52.514;13.192;2023-06-04T03:19:58;13.10;93.00
9810;DHT22;4944;52.514;13.192;2023-06-04T03:22:26;13.10;93.00
9810;DHT22;4944;52.514;13.192;2023-06-04T03:24:53;13.10;93.10
9810;DHT22;4944;52.514;13.192;2023-06-04T03:27:20;13.10;93.10
9810;DHT22;4944;52.514;13.192;2023-06-04T03:29:47;13.10;93.20
9810;DHT22;4944;52.514;13.192;2023-06-04T03:32:16;13.10;93.20
9810;DHT22;4944;52.514;13.192;2023-06-04T03:34:43;13.00;93.40
9810;DHT22;4944;52.514;13.192;2023-06-04T03:37:10;13.00;93.40
9810;DHT22;4944;52.514;13.192;2023-06-04T03:39:37;13.00;93.40
9810;DHT22;4944;52.514;13.192;2023-06-04T03:42:04;13.00;93.70
9810;DHT22;4944;52.514;13.192;2023-06-04T03:44:31;13.00;93.50
9810;DHT22;4944;52.514;13.192;2023-06-04T03:46:58;13.00;93.50
9810;DHT22;4944;52.514;13.192;2023-06-04T03:49:26;13.00;93.60
9810;DHT22;4944;52.514;13.192;2023-06-04T03:51:53;13.00;93.60
9810;DHT22;4944;52.514;13.192;2023-06-04T03:54:21;13.00;93.80
9810;DHT22;4944;52.514;13.192;2023-06-04T03:56:48;13.00;94.00
9810;DHT22;4944;52.514;13.192;2023-06-04T03:59:15;13.00;94.10
9810;DHT22;4944;52.514;13.192;2023-06-04T04:01:42;13.00;94.00
9810;DHT22;4944;52.514;13.192;2023-06-04T04:04:09;13.00;94.00
9810;DHT22;4944;52.514;13.192;2023-06-04T04:06:37;13.00;94.10
9810;DHT22;4944;52.514;13.192;2023-06-04T04:09:05;13.00;94.20
9810;DHT22;4944;52.514;13.192;2023-06-04T04:11:32;13.00;94.40
9810;DHT22;4944;52.514;13.192;2023-06-04T04:14:00;13.00;94.40
9810;DHT22;4944;52.514;13.192;2023-06-04T04:16:27;13.00;94.50
9810;DHT22;4944;52.514;13.192;2023-06-04T04:18:54;13.10;94.50
9810;DHT22;4944;52.514;13.192;2023-06-04T04:21:21;13.00;94.50
9810;DHT22;4944;52.514;13.192;2023-06-04T04:23:50;13.10;94.60
9810;DHT22;4944;52.514;13.192;2023-06-04T04:26:17;13.20;94.70
9810;DHT22;4944;52.514;13.192;2023-06-04T04:28:44;13.20;94.80
9810;DHT22;4944;52.514;13.192;2023-06-04T04:31:11;13.20;94.90
9810;DHT22;4944;52.514;13.192;2023-06-04T04:33:38;13.30;95.00
9810;DHT22;4944;52.514;13.192;2023-06-04T04:36:06;13.30;95.20
9810;DHT22;4944;52.514;13.192;2023-06-04T04:38:38;13.40;95.20
9810;DHT22;4944;52.514;13.192;2023-06-04T04:41:07;13.50;95.40
9810;DHT22;4944;52.514;13.192;2023-06-04T04:43:35;13.50;95.60
9810;DHT22;4944;52.514;13.192;2023-06-04T04:46:03;13.50;95.60
9810;DHT22;4944;52.514;13.192;2023-06-04T04:48:30;13.60;95.40
9810;DHT22;4944;52.514;13.192;2023-06-04T04:50:57;13.60;95.40
9810;DHT22;4944;52.514;13.192;2023-06-04T04:53:25;13.70;95.00
9810;DHT22;4944;52.514;13.192;2023-06-04T04:55:52;13.70;94.70
9810;DHT22;4944;52.514;13.192;2023-06-04T04:58:20;13.80;94.50
9810;DHT22;4944;52.514;13.192;2023-06-04T05:00:47;13.80;94.30
9810;DHT22;4944;52.514;13.192;2023-06-04T05:03:14;13.80;94.10
9810;DHT22;4944;52.514;13.192;2023-06-04T05:05:41;13.90;94.00
9810;DHT22;4944;52.514;13.192;2023-06-04T05:08:09;13.90;94.00
9810;DHT22;4944;52.514;13.192;2023-06-04T05:10:36;14.00;93.90
9810;DHT22;4944;52.514;13.192;2023-06-04T05:13:02;14.00;93.80
9810;DHT22;4944;52.514;13.192;2023-06-04T05:15:32;14.00;93.30
9810;DHT22;4944;52.514;13.192;2023-06-04T05:17:59;14.10;93.00
9810;DHT22;4944;52.514;13.192;2023-06-04T05:20:29;14.10;92.80
9810;DHT22;4944;52.514;13.192;2023-06-04T05:22:56;14.20;92.70
9810;DHT22;4944;52.514;13.192;2023-06-04T05:25:23;14.20;92.80
9810;DHT22;4944;52.514;13.192;2023-06-04T05:27:49;14.30;92.80
9810;DHT22;4944;52.514;13.192;2023-06-04T05:30:16;14.30;92.90
9810;DHT22;4944;52.514;13.192;2023-06-04T05:32:45;14.40;92.80
9810;DHT22;4944;52.514;13.192;2023-06-04T05:35:11;14.40;92.70
9810;DHT22;4944;52.514;13.192;2023-06-04T05:37:38;14.50;92.70
9810;DHT22;4944;52.514;13.192;2023-06-04T05:40:08;14.50;92.70
9810;DHT22;4944;52.514;13.192;2023-06-04T05:42:36;14.60;92.90
9810;DHT22;4944;52.514;13.192;2023-06-04T05:45:04;14.60;92.90
9810;DHT22;4944;52.514;13.192;2023-06-04T05:47:33;14.60;92.80
9810;DHT22;4944;52.514;13.192;2023-06-04T05:50:02;14.70;92.70
9810;DHT22;4944;52.514;13.192;2023-06-04T05:52:29;14.70;92.50
9810;DHT22;4944;52.514;13.192;2023-06-04T05:54:56;14.80;92.40
9810;DHT22;4944;52.514;13.192;2023-06-04T05:57:23;14.80;92.10
9810;DHT22;4944;52.514;13.192;2023-06-04T05:59:50;14.90;91.90
9810;DHT22;4944;52.514;13.192;2023-06-04T06:02:17;15.00;91.90
9810;DHT22;4944;52.514;13.192;2023-06-04T06:04:44;15.00;91.90
9810;DHT22;4944;52.514;13.192;2023-06-04T06:07:12;15.00;91.60
9810;DHT22;4944;52.514;13.192;2023-06-04T06:09:39;15.00;91.90
9810;DHT22;4944;52.514;13.192;2023-06-04T06:12:06;15.10;91.50
9810;DHT22;4944;52.514;13.192;2023-06-04T06:14:33;15.20;91.60
9810;DHT22;4944;52.514;13.192;2023-06-04T06:17:01;15.20;91.40
9810;DHT22;4944;52.514;13.192;2023-06-04T06:19:28;15.30;91.50
9810;DHT22;4944;52.514;13.192;2023-06-04T06:21:55;15.30;91.40
9810;DHT22;4944;52.514;13.192;2023-06-04T06:24:25;15.40;91.80
9810;DHT22;4944;52.514;13.192;2023-06-04T06:26:52;15.40;91.50
9810;DHT22;4944;52.514;13.192;2023-06-04T06:29:19;15.50;91.40
9810;DHT22;4944;52.514;13.192;2023-06-04T06:31:46;15.50;91.10
9810;DHT22;4944;52.514;13.192;2023-06-04T06:34:14;15.50;90.80
9810;DHT22;4944;52.514;13.192;2023-06-04T06:36:41;15.60;90.80
9810;DHT22;4944;52.514;13.192;2023-06-04T06:39:08;15.60;91.30
9810;DHT22;4944;52.514;13.192;2023-06-04T06:41:37;15.60;91.00
9810;DHT22;4944;52.514;13.192;2023-06-04T06:44:05;15.70;90.90
9810;DHT22;4944;52.514;13.192;2023-06-04T06:46:32;15.80;90.80
9810;DHT22;4944;52.514;13.192;2023-06-04T06:48:59;15.80;90.70
9810;DHT22;4944;52.514;13.192;2023-06-04T06:51:26;15.80;90.60
9810;DHT22;4944;52.514;13.192;2023-06-04T06:53:53;15.90;90.60
9810;DHT22;4944;52.514;13.192;2023-06-04T06:56:20;15.90;90.60
9810;DHT22;4944;52.514;13.192;2023-06-04T06:58:49;16.00;90.60
9810;DHT22;4944;52.514;13.192;2023-06-04T07:01:16;16.00;90.40
9810;DHT22;4944;52.514;13.192;2023-06-04T07:03:43;16.10;90.00
9810;DHT22;4944;52.514;13.192;2023-06-04T07:06:10;16.10;89.10
9810;DHT22;4944;52.514;13.192;2023-06-04T07:08:37;16.20;88.20
9810;DHT22;4944;52.514;13.192;2023-06-04T07:11:04;16.20;86.60
9810;DHT22;4944;52.514;13.192;2023-06-04T07:13:32;16.20;86.70
9810;DHT22;4944;52.514;13.192;2023-06-04T07:16:02;16.30;83.40
9810;DHT22;4944;52.514;13.192;2023-06-04T07:18:29;16.30;83.10
9810;DHT22;4944;52.514;13.192;2023-06-04T07:20:56;16.40;81.90
9810;DHT22;4944;52.514;13.192;2023-06-04T07:23:23;16.50;83.00
9810;DHT22;4944;52.514;13.192;2023-06-04T07:25:50;16.50;83.40
9810;DHT22;4944;52.514;13.192;2023-06-04T07:28:16;16.50;83.30
9810;DHT22;4944;52.514;13.192;2023-06-04T07:30:45;16.50;82.90
9810;DHT22;4944;52.514;13.192;2023-06-04T07:33:13;16.70;78.40
9810;DHT22;4944;52.514;13.192;2023-06-04T07:35:40;16.70;78.20
9810;DHT22;4944;52.514;13.192;2023-06-04T07:38:07;16.80;79.20
9810;DHT22;4944;52.514;13.192;2023-06-04T07:40:34;16.80;79.90
9810;DHT22;4944;52.514;13.192;2023-06-04T07:43:01;16.90;79.20
9810;DHT22;4944;52.514;13.192;2023-06-04T07:45:28;16.90;79.00
9810;DHT22;4944;52.514;13.192;2023-06-04T07:47:56;16.90;77.60
9810;DHT22;4944;52.514;13.192;2023-06-04T07:50:24;16.90;77.90
9810;DHT22;4944;52.514;13.192;2023-06-04T07:52:51;16.90;77.40
9810;DHT22;4944;52.514;13.192;2023-06-04T07:55:18;17.00;75.00
9810;DHT22;4944;52.514;13.192;2023-06-04T07:57:45;17.00;76.40
9810;DHT22;4944;52.514;13.192;2023-06-04T08:00:13;17.10;76.80
9810;DHT22;4944;52.514;13.192;2023-06-04T08:02:41;17.20;75.00
9810;DHT22;4944;52.514;13.192;2023-06-04T08:05:08;17.40;73.80
9810;DHT22;4944;52.514;13.192;2023-06-04T08:07:39;17.50;72.70
9810;DHT22;4944;52.514;13.192;2023-06-04T08:10:07;17.50;74.00
9810;DHT22;4944;52.514;13.192;2023-06-04T08:12:34;17.50;75.50
9810;DHT22;4944;52.514;13.192;2023-06-04T08:15:01;17.60;75.00
9810;DHT22;4944;52.514;13.192;2023-06-04T08:17:28;17.70;74.50
9810;DHT22;4944;52.514;13.192;2023-06-04T08:19:56;17.70;75.10
9810;DHT22;4944;52.514;13.192;2023-06-04T08:22:23;17.70;75.10
9810;DHT22;4944;52.514;13.192;2023-06-04T08:24:51;17.70;75.20
9810;DHT22;4944;52.514;13.192;2023-06-04T08:27:18;17.70;75.10
9810;DHT22;4944;52.514;13.192;2023-06-04T08:29:45;17.70;75.30
9810;DHT22;4944;52.514;13.192;2023-06-04T08:32:12;17.80;75.80
9810;DHT22;4944;52.514;13.192;2023-06-04T08:34:39;18.00;74.50
9810;DHT22;4944;52.514;13.192;2023-06-04T08:37:06;18.10;74.80
9810;DHT22;4944;52.514;13.192;2023-06-04T08:39:34;18.20;73.00
9810;DHT22;4944;52.514;13.192;2023-06-04T08:42:04;18.20;70.70
9810;DHT22;4944;52.514;13.192;2023-06-04T08:44:33;18.30;70.80
9810;DHT22;4944;52.514;13.192;2023-06-04T08:47:03;18.40;69.80
9810;DHT22;4944;52.514;13.192;2023-06-04T08:49:34;18.50;68.80
9810;DHT22;4944;52.514;13.192;2023-06-04T08:52:02;18.60;70.10
9810;DHT22;4944;52.514;13.192;2023-06-04T08:54:29;18.60;69.30
9810;DHT22;4944;52.514;13.192;2023-06-04T08:56:57;18.60;69.60
9810;DHT22;4944;52.514;13.192;2023-06-04T08:59:25;18.60;68.90
9810;DHT22;4944;52.514;13.192;2023-06-04T09:01:54;18.70;69.40
9810;DHT22;4944;52.514;13.192;2023-06-04T09:04:21;18.60;69.50
9810;DHT22;4944;52.514;13.192;2023-06-04T09:06:48;18.60;69.10
9810;DHT22;4944;52.514;13.192;2023-06-04T09:09:16;18.70;67.70
9810;DHT22;4944;52.514;13.192;2023-06-04T09:11:49;18.70;68.90
9810;DHT22;4944;52.514;13.192;2023-06-04T09:14:17;18.80;69.10
9810;DHT22;4944;52.514;13.192;2023-06-04T09:16:47;18.90;70.30
9810;DHT22;4944;52.514;13.192;2023-06-04T09:19:16;19.00;70.00
9810;DHT22;4944;52.514;13.192;2023-06-04T09:21:50;19.00;69.30
9810;DHT22;4944;52.514;13.192;2023-06-04T09:24:18;19.10;66.10
9810;DHT22;4944;52.514;13.192;2023-06-04T09:26:46;19.20;68.70
9810;DHT22;4944;52.514;13.192;2023-06-04T09:29:14;19.30;66.60
9810;DHT22;4944;52.514;13.192;2023-06-04T09:31:43;19.40;65.80
9810;DHT22;4944;52.514;13.192;2023-06-04T09:34:12;19.40;66.70
9810;DHT22;4944;52.514;13.192;2023-06-04T09:36:39;19.50;68.00
9810;DHT22;4944;52.514;13.192;2023-06-04T09:39:15;19.60;67.90
9810;DHT22;4944;52.514;13.192;2023-06-04T09:41:42;19.70;69.00
9810;DHT22;4944;52.514;13.192;2023-06-04T09:44:09;19.80;69.40
9810;DHT22;4944;52.514;13.192;2023-06-04T09:46:39;19.80;69.60
9810;DHT22;4944;52.514;13.192;2023-06-04T09:49:06;19.90;70.10
9810;DHT22;4944;52.514;13.192;2023-06-04T09:51:34;20.00;67.70
9810;DHT22;4944;52.514;13.192;2023-06-04T09:54:02;20.00;67.90
9810;DHT22;4944;52.514;13.192;2023-06-04T09:56:30;20.20;68.40
9810;DHT22;4944;52.514;13.192;2023-06-04T09:59:05;20.30;68.50
9810;DHT22;4944;52.514;13.192;2023-06-04T10:01:33;20.30;69.30
9810;DHT22;4944;52.514;13.192;2023-06-04T10:04:03;20.40;65.40
9810;DHT22;4944;52.514;13.192;2023-06-04T10:06:35;20.40;65.80
9810;DHT22;4944;52.514;13.192;2023-06-04T10:09:05;20.40;65.90
9810;DHT22;4944;52.514;13.192;2023-06-04T10:11:35;20.40;66.90
9810;DHT22;4944;52.514;13.192;2023-06-04T10:14:03;20.60;67.00
9810;DHT22;4944;52.514;13.192;2023-06-04T10:16:32;20.70;67.30
9810;DHT22;4944;52.514;13.192;2023-06-04T10:18:59;20.70;65.50
9810;DHT22;4944;52.514;13.192;2023-06-04T10:21:28;20.70;64.90
9810;DHT22;4944;52.514;13.192;2023-06-04T10:23:59;20.70;65.00
9810;DHT22;4944;52.514;13.192;2023-06-04T10:26:26;20.80;65.70
9810;DHT22;4944;52.514;13.192;2023-06-04T10:28:53;20.90;64.90
9810;DHT22;4944;52.514;13.192;2023-06-04T10:31:22;21.00;64.30
9810;DHT22;4944;52.514;13.192;2023-06-04T10:33:53;21.10;65.50
9810;DHT22;4944;52.514;13.192;2023-06-04T10:36:21;21.10;65.00
9810;DHT22;4944;52.514;13.192;2023-06-04T10:38:50;21.30;62.80
9810;DHT22;4944;52.514;13.192;2023-06-04T10:41:19;21.50;63.50
9810;DHT22;4944;52.514;13.192;2023-06-04T10:43:47;21.60;64.40
9810;DHT22;4944;52.514;13.192;2023-06-04T10:46:16;21.80;63.10
9810;DHT22;4944;52.514;13.192;2023-06-04T10:48:48;21.90;62.60
9810;DHT22;4944;52.514;13.192;2023-06-04T10:51:15;22.00;61.30
9810;DHT22;4944;52.514;13.192;2023-06-04T10:53:43;22.10;60.60
9810;DHT22;4944;52.514;13.192;2023-06-04T10:56:10;22.10;59.40
9810;DHT22;4944;52.514;13.192;2023-06-04T10:58:38;22.10;59.70
9810;DHT22;4944;52.514;13.192;2023-06-04T11:01:05;22.20;58.50
9810;DHT22;4944;52.514;13.192;2023-06-04T11:03:35;22.30;59.50
9810;DHT22;4944;52.514;13.192;2023-06-04T11:06:13;22.30;58.20
9810;DHT22;4944;52.514;13.192;2023-06-04T11:08:41;22.40;58.00
9810;DHT22;4944;52.514;13.192;2023-06-04T11:11:11;22.50;58.20
9810;DHT22;4944;52.514;13.192;2023-06-04T11:13:40;22.70;58.70
9810;DHT22;4944;52.514;13.192;2023-06-04T11:16:16;22.70;57.80
9810;DHT22;4944;52.514;13.192;2023-06-04T11:18:43;22.70;57.50
9810;DHT22;4944;52.514;13.192;2023-06-04T11:21:11;22.90;58.70
9810;DHT22;4944;52.514;13.192;2023-06-04T11:23:40;23.00;57.60
9810;DHT22;4944;52.514;13.192;2023-06-04T11:26:08;23.10;57.60
9810;DHT22;4944;52.514;13.192;2023-06-04T11:28:35;22.90;56.30
9810;DHT22;4944;52.514;13.192;2023-06-04T11:31:04;23.00;58.10
9810;DHT22;4944;52.514;13.192;2023-06-04T11:33:41;23.30;58.10
9810;DHT22;4944;52.514;13.192;2023-06-04T11:36:09;23.50;57.40
9810;DHT22;4944;52.514;13.192;2023-06-04T11:38:36;23.70;57.80
9810;DHT22;4944;52.514;13.192;2023-06-04T11:41:03;23.80;58.10
9810;DHT22;4944;52.514;13.192;2023-06-04T11:43:32;24.00;58.50
9810;DHT22;4944;52.514;13.192;2023-06-04T11:46:06;24.20;57.50
9810;DHT22;4944;52.514;13.192;2023-06-04T11:48:34;24.30;57.20
9810;DHT22;4944;52.514;13.192;2023-06-04T11:51:06;24.40;56.90
9810;DHT22;4944;52.514;13.192;2023-06-04T11:53:36;24.50;57.30
9810;DHT22;4944;52.514;13.192;2023-06-04T11:56:04;24.60;57.30
9810;DHT22;4944;52.514;13.192;2023-06-04T11:58:32;24.70;57.90
9810;DHT22;4944;52.514;13.192;2023-06-04T12:00:59;24.80;55.40
9810;DHT22;4944;52.514;13.192;2023-06-04T12:03:38;24.80;55.70
9810;DHT22;4944;52.514;13.192;2023-06-04T12:06:13;25.10;55.50
9810;DHT22;4944;52.514;13.192;2023-06-04T12:08:51;25.20;54.80
9810;DHT22;4944;52.514;13.192;2023-06-04T12:11:26;25.30;54.70
9810;DHT22;4944;52.514;13.192;2023-06-04T12:13:55;25.40;55.50
9810;DHT22;4944;52.514;13.192;2023-06-04T12:16:22;25.60;55.00
9810;DHT22;4944;52.514;13.192;2023-06-04T12:18:50;25.50;54.00
9810;DHT22;4944;52.514;13.192;2023-06-04T12:21:20;25.60;54.30
9810;DHT22;4944;52.514;13.192;2023-06-04T12:23:48;25.40;52.40
9810;DHT22;4944;52.514;13.192;2023-06-04T12:26:22;25.40;53.70
9810;DHT22;4944;52.514;13.192;2023-06-04T12:28:59;25.60;53.50
9810;DHT22;4944;52.514;13.192;2023-06-04T12:31:26;25.80;53.50
9810;DHT22;4944;52.514;13.192;2023-06-04T12:34:00;25.80;53.80
9810;DHT22;4944;52.514;13.192;2023-06-04T12:36:27;25.90;54.50
9810;DHT22;4944;52.514;13.192;2023-06-04T12:38:59;26.10;54.90
9810;DHT22;4944;52.514;13.192;2023-06-04T12:41:27;26.30;55.60
9810;DHT22;4944;52.514;13.192;2023-06-04T12:43:54;26.40;51.80
9810;DHT22;4944;52.514;13.192;2023-06-04T12:46:21;26.40;52.10
9810;DHT22;4944;52.514;13.192;2023-06-04T12:48:49;26.50;52.40
9810;DHT22;4944;52.514;13.192;2023-06-04T12:51:17;26.60;52.10
9810;DHT22;4944;52.514;13.192;2023-06-04T12:53:44;26.50;52.90
9810;DHT22;4944;52.514;13.192;2023-06-04T12:56:11;26.70;52.90
9810;DHT22;4944;52.514;13.192;2023-06-04T12:58:38;26.80;51.60
9810;DHT22;4944;52.514;13.192;2023-06-04T13:01:06;26.80;50.70
9810;DHT22;4944;52.514;13.192;2023-06-04T13:03:33;26.80;51.30
9810;DHT22;4944;52.514;13.192;2023-06-04T13:06:00;27.00;51.40
9810;DHT22;4944;52.514;13.192;2023-06-04T13:08:28;27.10;51.10
9810;DHT22;4944;52.514;13.192;2023-06-04T13:10:55;27.00;51.40
9810;DHT22;4944;52.514;13.192;2023-06-04T13:13:22;27.20;52.60
9810;DHT22;4944;52.514;13.192;2023-06-04T13:15:49;27.30;52.10
9810;DHT22;4944;52.514;13.192;2023-06-04T13:18:16;27.40;53.30
9810;DHT22;4944;52.514;13.192;2023-06-04T13:20:47;27.60;52.10
9810;DHT22;4944;52.514;13.192;2023-06-04T13:23:15;27.60;51.40
9810;DHT22;4944;52.514;13.192;2023-06-04T13:25:44;27.70;51.50
9810;DHT22;4944;52.514;13.192;2023-06-04T13:28:11;27.80;51.20
9810;DHT22;4944;52.514;13.192;2023-06-04T13:30:38;27.90;50.70
9810;DHT22;4944;52.514;13.192;2023-06-04T13:33:05;27.80;50.30
9810;DHT22;4944;52.514;13.192;2023-06-04T13:35:33;27.90;51.00
9810;DHT22;4944;52.514;13.192;2023-06-04T13:38:00;28.00;50.70
9810;DHT22;4944;52.514;13.192;2023-06-04T13:40:27;28.00;49.60
9810;DHT22;4944;52.514;13.192;2023-06-04T13:42:55;27.90;50.10
9810;DHT22;4944;52.514;13.192;2023-06-04T13:45:22;28.00;50.60
9810;DHT22;4944;52.514;13.192;2023-06-04T13:47:49;28.10;50.80
9810;DHT22;4944;52.514;13.192;2023-06-04T13:50:16;28.00;49.30
9810;DHT22;4944;52.514;13.192;2023-06-04T13:52:43;28.00;49.20
9810;DHT22;4944;52.514;13.192;2023-06-04T13:55:12;28.10;49.50
9810;DHT22;4944;52.514;13.192;2023-06-04T13:57:39;28.20;49.30
9810;DHT22;4944;52.514;13.192;2023-06-04T14:00:08;28.30;48.90
9810;DHT22;4944;52.514;13.192;2023-06-04T14:02:35;28.40;49.40
9810;DHT22;4944;52.514;13.192;2023-06-04T14:05:04;28.50;50.00
9810;DHT22;4944;52.514;13.192;2023-06-04T14:07:31;28.60;50.40
9810;DHT22;4944;52.514;13.192;2023-06-04T14:09:58;28.80;50.90
9810;DHT22;4944;52.514;13.192;2023-06-04T14:12:25;28.90;49.70
9810;DHT22;4944;52.514;13.192;2023-06-04T14:14:52;28.90;49.70
9810;DHT22;4944;52.514;13.192;2023-06-04T14:17:20;29.00;49.50
9810;DHT22;4944;52.514;13.192;2023-06-04T14:19:47;29.00;48.80
9810;DHT22;4944;52.514;13.192;2023-06-04T14:22:14;28.90;49.30
9810;DHT22;4944;52.514;13.192;2023-06-04T14:24:41;29.00;49.40
9810;DHT22;4944;52.514;13.192;2023-06-04T14:27:08;29.00;49.00
9810;DHT22;4944;52.514;13.192;2023-06-04T14:29:35;29.00;48.90
9810;DHT22;4944;52.514;13.192;2023-06-04T14:32:03;29.00;49.40
9810;DHT22;4944;52.514;13.192;2023-06-04T14:34:31;29.00;49.50
9810;DHT22;4944;52.514;13.192;2023-06-04T14:36:58;28.90;48.80
9810;DHT22;4944;52.514;13.192;2023-06-04T14:39:26;29.10;49.70
9810;DHT22;4944;52.514;13.192;2023-06-04T14:41:53;29.10;48.20
9810;DHT22;4944;52.514;13.192;2023-06-04T14:44:20;29.20;48.70
9810;DHT22;4944;52.514;13.192;2023-06-04T14:46:49;29.30;48.90
9810;DHT22;4944;52.514;13.192;2023-06-04T14:49:16;29.30;50.00
9810;DHT22;4944;52.514;13.192;2023-06-04T14:51:45;29.20;49.30
9810;DHT22;4944;52.514;13.192;2023-06-04T14:54:12;29.30;49.10
9810;DHT22;4944;52.514;13.192;2023-06-04T14:56:39;29.20;47.70
9810;DHT22;4944;52.514;13.192;2023-06-04T14:59:06;29.30;48.50
9810;DHT22;4944;52.514;13.192;2023-06-04T15:01:34;29.30;48.00
9810;DHT22;4944;52.514;13.192;2023-06-04T15:04:02;29.10;47.60
9810;DHT22;4944;52.514;13.192;2023-06-04T15:06:29;28.90;48.60
9810;DHT22;4944;52.514;13.192;2023-06-04T15:08:57;29.00;49.00
9810;DHT22;4944;52.514;13.192;2023-06-04T15:11:24;29.20;49.50
9810;DHT22;4944;52.514;13.192;2023-06-04T15:13:52;29.00;48.10
9810;DHT22;4944;52.514;13.192;2023-06-04T15:16:20;28.90;47.80
9810;DHT22;4944;52.514;13.192;2023-06-04T15:18:47;29.00;48.50
9810;DHT22;4944;52.514;13.192;2023-06-04T15:21:13;29.10;49.20
9810;DHT22;4944;52.514;13.192;2023-06-04T15:23:41;29.10;48.70
9810;DHT22;4944;52.514;13.192;2023-06-04T15:26:11;29.20;49.20
9810;DHT22;4944;52.514;13.192;2023-06-04T15:28:38;29.20;48.20
9810;DHT22;4944;52.514;13.192;2023-06-04T15:31:05;29.30;48.50
9810;DHT22;4944;52.514;13.192;2023-06-04T15:33:31;29.40;49.30
9810;DHT22;4944;52.514;13.192;2023-06-04T15:35:58;29.50;49.30
9810;DHT22;4944;52.514;13.192;2023-06-04T15:38:25;29.40;49.50
9810;DHT22;4944;52.514;13.192;2023-06-04T15:40:52;29.40;50.00
9810;DHT22;4944;52.514;13.192;2023-06-04T15:43:20;29.50;49.20
9810;DHT22;4944;52.514;13.192;2023-06-04T15:45:47;29.50;49.20
9810;DHT22;4944;52.514;13.192;2023-06-04T15:48:14;29.50;48.70
9810;DHT22;4944;52.514;13.192;2023-06-04T15:50:41;29.50;48.50